Terminal Aerodrome Forecast
Issued by NWS Detroit/Pontiac, MI

Home | Current Version | Previous Version | Text Only | Print | Product List | Glossary On
Versions: 1 2 3 4 5 6 7 8 9 10 11 12 13 14 15 16 17 18 19 20 21 22 23 24 25 26
000
FTUS43 KDTX 280252 AAA
TAFDTW
TAF AMD
KDTW 280252Z 2803/0106 15006KT P6SM BKN060
     FM280700 16003KT 5SM BR SCT040 BKN100
     FM281300 17010KT 2SM -SHRA BR OVC012
     FM281600 17010KT 3SM -DZ BR OVC007
     FM281900 18010KT 6SM HZ OVC015
     FM010000 18010KT 5SM SHRA OVC012=

USA.gov is the U.S. government's official web portal to all federal, state and local government web resources and services.